createdAt,value
2022-08-28T00:01:23.705Z,20.13
2022-08-28T00:03:50.381Z,20.37
2022-08-28T00:06:17.090Z,20.62
2022-08-28T00:08:43.720Z,20.38
2022-08-28T00:11:10.358Z,20.75
2022-08-28T00:13:37.027Z,21.13
2022-08-28T00:16:05.067Z,20.03
2022-08-28T00:18:31.842Z,20.53
2022-08-28T00:20:59.436Z,20.88
2022-08-28T00:23:40.298Z,20.81
2022-08-28T00:26:10.792Z,20.63
2022-08-28T00:28:37.465Z,21.03
2022-08-28T00:31:04.186Z,21.16
2022-08-28T00:33:34.651Z,20.75
2022-08-28T00:36:03.613Z,21.03
2022-08-28T00:38:30.874Z,20.88
2022-08-28T00:41:04.082Z,20.86
2022-08-28T00:43:34.079Z,20.92
2022-08-28T00:46:05.101Z,21.13
2022-08-28T00:48:32.215Z,21.38
2022-08-28T00:51:00.595Z,21.34
2022-08-28T00:53:32.965Z,21.43
2022-08-28T00:56:08.139Z,21.26
2022-08-28T00:58:41.401Z,21.29
2022-08-28T01:01:08.011Z,21.37
2022-08-28T01:03:37.220Z,21.44
2022-08-28T01:06:05.458Z,21.62
2022-08-28T01:08:33.298Z,21.44
2022-08-28T01:11:06.139Z,21.60
2022-08-28T01:13:33.943Z,21.61
2022-08-28T01:16:02.661Z,21.48
2022-08-28T01:18:30.834Z,21.38
2022-08-28T01:21:20.417Z,21.00
2022-08-28T01:23:58.580Z,20.12
2022-08-28T01:26:26.763Z,20.31
2022-08-28T01:29:00.036Z,20.74
2022-08-28T01:31:29.392Z,20.88
2022-08-28T01:33:57.030Z,20.20
2022-08-28T01:36:23.693Z,20.44
2022-08-28T01:38:56.284Z,19.22
2022-08-28T01:41:23.098Z,19.67
2022-08-28T01:43:49.741Z,18.63
2022-08-28T01:46:16.894Z,18.33
2022-08-28T01:48:44.164Z,18.11
2022-08-28T01:51:12.746Z,17.87
2022-08-28T01:53:40.328Z,17.73
2022-08-28T01:56:12.034Z,17.63
2022-08-28T01:58:41.031Z,17.47
2022-08-28T02:01:18.559Z,17.37
2022-08-28T02:03:45.895Z,17.55
2022-08-28T02:06:14.657Z,17.38
2022-08-28T02:08:42.320Z,17.73
2022-08-28T02:11:09.245Z,17.49
2022-08-28T02:13:37.945Z,17.40
2022-08-28T02:16:06.824Z,17.67
2022-08-28T02:18:33.557Z,17.72
2022-08-28T02:21:00.194Z,17.76
2022-08-28T02:23:27.528Z,17.54
2022-08-28T02:25:54.185Z,17.47
2022-08-28T02:28:20.956Z,17.58
2022-08-28T02:30:47.710Z,17.58
2022-08-28T02:33:14.439Z,17.63
2022-08-28T02:35:42.360Z,17.96
2022-08-28T02:38:09.791Z,17.45
2022-08-28T02:40:36.978Z,17.43
2022-08-28T02:43:05.266Z,17.30
2022-08-28T02:45:32.034Z,17.46
2022-08-28T02:47:58.667Z,17.52
2022-08-28T02:50:25.304Z,17.58
2022-08-28T02:52:52.402Z,17.53
2022-08-28T02:55:20.337Z,17.62
2022-08-28T02:57:47.967Z,17.42
2022-08-28T03:00:24.525Z,17.30
2022-08-28T03:02:53.012Z,17.42
2022-08-28T03:05:22.978Z,17.48
2022-08-28T03:07:51.521Z,17.75
2022-08-28T03:10:18.145Z,17.63
2022-08-28T03:12:44.803Z,17.90
2022-08-28T03:15:12.156Z,17.65
2022-08-28T03:17:39.621Z,17.96
2022-08-28T03:20:12.626Z,17.99
2022-08-28T03:22:40.193Z,17.65
2022-08-28T03:25:07.488Z,17.54
2022-08-28T03:27:34.125Z,17.38
2022-08-28T03:30:00.941Z,17.43
2022-08-28T03:32:29.338Z,17.56
2022-08-28T03:34:56.057Z,17.57
2022-08-28T03:37:22.784Z,17.72
2022-08-28T03:39:49.822Z,17.24
2022-08-28T03:42:16.590Z,17.24
2022-08-28T03:44:43.223Z,17.27
2022-08-28T03:47:09.880Z,17.50
2022-08-28T03:49:36.889Z,17.35
2022-08-28T03:52:03.738Z,17.23
2022-08-28T03:54:30.437Z,17.14
2022-08-28T03:56:57.281Z,17.28
2022-08-28T03:59:29.731Z,17.17
2022-08-28T04:02:00.490Z,16.95
2022-08-28T04:04:27.194Z,17.24
2022-08-28T04:06:53.918Z,17.13
2022-08-28T04:09:20.524Z,17.24
2022-08-28T04:11:47.172Z,17.13
2022-08-28T04:14:13.882Z,16.93
2022-08-28T04:16:40.603Z,16.82
2022-08-28T04:19:07.322Z,16.93
2022-08-28T04:21:34.085Z,17.10
2022-08-28T04:24:00.686Z,17.02
2022-08-28T04:26:27.727Z,17.10
2022-08-28T04:28:55.975Z,17.33
2022-08-28T04:31:31.722Z,17.17
2022-08-28T04:34:06.812Z,17.09
2022-08-28T04:36:33.614Z,16.89
2022-08-28T04:39:01.472Z,17.06
2022-08-28T04:41:28.719Z,17.18
2022-08-28T04:43:57.213Z,17.13
2022-08-28T04:46:25.487Z,16.82
2022-08-28T04:48:52.269Z,17.02
2022-08-28T04:51:19.258Z,17.02
2022-08-28T04:53:46.065Z,17.10
2022-08-28T04:56:14.778Z,17.25
2022-08-28T04:58:43.061Z,17.32
2022-08-28T05:01:14.139Z,17.30
2022-08-28T05:03:41.026Z,17.07
2022-08-28T05:06:08.723Z,17.25
2022-08-28T05:08:35.910Z,17.63
2022-08-28T05:11:34.555Z,17.49
2022-08-28T05:14:03.601Z,17.33
2022-08-28T05:16:30.308Z,17.53
2022-08-28T05:19:00.548Z,17.33
2022-08-28T05:21:28.109Z,17.58
2022-08-28T05:23:57.697Z,17.29
2022-08-28T05:26:26.866Z,17.32
2022-08-28T05:28:55.172Z,17.27
2022-08-28T05:31:23.217Z,17.52
2022-08-28T05:33:50.964Z,17.44
2022-08-28T05:36:18.757Z,17.53
2022-08-28T05:38:45.415Z,17.42
2022-08-28T05:41:12.120Z,17.41
2022-08-28T05:43:39.426Z,17.47
2022-08-28T05:46:08.229Z,17.52
2022-08-28T05:48:38.318Z,17.74
2022-08-28T05:51:16.261Z,17.45
2022-08-28T05:53:44.871Z,17.77
2022-08-28T05:56:15.752Z,17.47
2022-08-28T05:58:43.304Z,17.46
2022-08-28T06:01:16.457Z,17.74
2022-08-28T06:03:51.700Z,17.76
2022-08-28T06:06:18.396Z,17.57
2022-08-28T06:08:58.324Z,17.40
2022-08-28T06:11:31.039Z,17.66
2022-08-28T06:14:02.693Z,18.28
2022-08-28T06:16:31.766Z,18.26
2022-08-28T06:19:00.083Z,17.88
2022-08-28T06:21:26.837Z,18.28
2022-08-28T06:23:53.607Z,18.07
2022-08-28T06:26:20.968Z,18.17
2022-08-28T06:28:47.704Z,18.32
2022-08-28T06:31:23.739Z,18.15
2022-08-28T06:33:56.634Z,18.01
2022-08-28T06:36:25.213Z,18.24
2022-08-28T06:38:51.860Z,18.27
2022-08-28T06:41:18.806Z,18.37
2022-08-28T06:43:48.004Z,18.55
2022-08-28T06:46:14.845Z,18.97
2022-08-28T06:48:41.515Z,19.09
2022-08-28T06:51:10.715Z,19.12
2022-08-28T06:53:39.541Z,19.06
2022-08-28T06:56:11.273Z,19.21
2022-08-28T06:58:50.500Z,19.25
2022-08-28T07:01:22.174Z,19.55
2022-08-28T07:03:52.114Z,19.54
2022-08-28T07:06:21.541Z,20.07
2022-08-28T07:08:48.691Z,20.15
2022-08-28T07:11:26.323Z,20.76
2022-08-28T07:13:54.311Z,20.52
2022-08-28T07:16:26.335Z,20.34
2022-08-28T07:18:53.611Z,19.42
2022-08-28T07:21:20.388Z,19.85
2022-08-28T07:23:47.846Z,19.75
2022-08-28T07:26:24.169Z,19.91
2022-08-28T07:29:09.577Z,20.27
2022-08-28T07:31:42.104Z,19.97
2022-08-28T07:34:10.894Z,20.54
2022-08-28T07:36:38.372Z,20.84
2022-08-28T07:39:05.674Z,20.79
2022-08-28T07:41:34.664Z,20.65
2022-08-28T07:44:01.433Z,20.69
2022-08-28T07:46:28.408Z,20.58
2022-08-28T07:48:55.231Z,20.36
2022-08-28T07:51:21.906Z,20.24
2022-08-28T07:53:48.594Z,20.25
2022-08-28T07:56:15.199Z,20.73
2022-08-28T07:58:41.819Z,21.91
2022-08-28T08:01:08.835Z,21.67
2022-08-28T08:03:35.526Z,21.33
2022-08-28T08:06:04.695Z,20.65
2022-08-28T08:08:34.048Z,21.00
2022-08-28T08:11:06.078Z,20.57
2022-08-28T08:13:34.989Z,21.36
2022-08-28T08:16:08.881Z,21.80
2022-08-28T08:18:35.606Z,22.36
2022-08-28T08:21:05.882Z,22.33
2022-08-28T08:23:34.125Z,22.01
2022-08-28T08:26:03.958Z,22.20
2022-08-28T08:28:30.981Z,21.92
2022-08-28T08:31:22.893Z,21.59
2022-08-28T08:33:52.668Z,21.55
2022-08-28T08:36:21.305Z,21.25
2022-08-28T08:38:48.569Z,21.79
2022-08-28T08:41:32.407Z,21.90
2022-08-28T08:44:28.470Z,21.83
2022-08-28T08:47:20.143Z,21.19
2022-08-28T08:49:52.437Z,20.79
2022-08-28T08:52:27.778Z,20.31
2022-08-28T08:55:21.251Z,21.10
2022-08-28T08:57:55.666Z,20.86
2022-08-28T09:00:22.412Z,20.18
2022-08-28T09:06:43.676Z,20.08
2022-08-28T09:09:46.613Z,19.87
2022-08-28T09:12:15.843Z,20.33
2022-08-28T09:15:00.973Z,19.69
2022-08-28T09:17:45.858Z,20.06
2022-08-28T09:20:19.671Z,20.20
2022-08-28T09:22:52.603Z,19.98
2022-08-28T09:25:44.190Z,20.54
2022-08-28T09:28:17.859Z,20.59
2022-08-28T09:30:57.437Z,20.53
2022-08-28T09:33:30.820Z,20.00
2022-08-28T09:35:57.620Z,20.02
2022-08-28T09:38:28.135Z,20.61
2022-08-28T09:41:11.788Z,20.59
2022-08-28T09:43:38.724Z,20.58
2022-08-28T09:46:06.498Z,20.71
2022-08-28T09:48:42.957Z,20.75
2022-08-28T09:51:13.441Z,21.37
2022-08-28T09:54:01.872Z,21.88
2022-08-28T09:56:35.220Z,21.85
2022-08-28T09:59:10.091Z,21.55
2022-08-28T10:01:49.138Z,22.14
2022-08-28T10:04:15.826Z,22.36
2022-08-28T10:06:58.854Z,22.44
2022-08-28T10:09:34.293Z,21.42
2022-08-28T10:12:33.982Z,20.62
2022-08-28T10:15:18.730Z,21.29
2022-08-28T10:18:04.048Z,22.16
2022-08-28T10:20:36.987Z,21.56
2022-08-28T10:23:20.662Z,21.35
2022-08-28T10:26:20.395Z,21.10
2022-08-28T10:28:50.038Z,20.71
2022-08-28T10:31:35.237Z,21.15
2022-08-28T10:34:10.839Z,21.63
2022-08-28T10:36:38.472Z,21.34
2022-08-28T10:39:27.345Z,21.46
2022-08-28T10:42:04.245Z,21.31
2022-08-28T10:44:33.911Z,21.46
2022-08-28T10:47:05.525Z,21.63
2022-08-28T10:49:39.635Z,21.25
2022-08-28T10:52:34.625Z,21.06
2022-08-28T10:55:17.891Z,22.14
2022-08-28T10:57:49.715Z,22.25
2022-08-28T11:00:20.131Z,21.79
2022-08-28T11:02:55.909Z,22.44
2022-08-28T11:05:26.284Z,22.22
2022-08-28T11:08:05.110Z,22.57
2022-08-28T11:10:35.830Z,23.45
2022-08-28T11:13:05.920Z,24.52
2022-08-28T11:15:37.198Z,24.34
2022-08-28T11:18:16.736Z,24.34
2022-08-28T11:21:00.967Z,24.66
2022-08-28T11:23:48.869Z,24.65
2022-08-28T11:26:54.329Z,24.29
2022-08-28T11:29:58.332Z,24.13
2022-08-28T11:32:38.902Z,24.86
2022-08-28T11:35:58.902Z,24.95
2022-08-28T11:38:40.627Z,23.66
2022-08-28T11:41:27.948Z,24.73
2022-08-28T11:44:09.807Z,24.99
2022-08-28T11:46:53.198Z,24.81
2022-08-28T11:49:25.714Z,25.61
2022-08-28T11:52:10.900Z,25.55
2022-08-28T11:54:58.772Z,25.44
2022-08-28T11:57:53.992Z,25.23
2022-08-28T12:00:51.013Z,25.56
2022-08-28T12:03:55.830Z,25.35
2022-08-28T12:06:44.516Z,25.68
2022-08-28T12:09:47.654Z,25.97
2022-08-28T12:12:23.253Z,25.76
2022-08-28T12:15:05.909Z,25.70
2022-08-28T12:17:46.337Z,25.18
2022-08-28T12:20:18.958Z,25.23
2022-08-28T12:22:50.094Z,25.22
2022-08-28T12:25:37.675Z,25.07
2022-08-28T12:28:22.359Z,24.50
2022-08-28T12:31:14.250Z,24.46
2022-08-28T12:34:06.399Z,24.83
2022-08-28T12:36:34.912Z,25.05
2022-08-28T12:39:02.747Z,24.91
2022-08-28T12:41:30.157Z,25.06
2022-08-28T12:44:00.321Z,24.53
2022-08-28T12:46:31.579Z,24.57
2022-08-28T12:49:01.783Z,24.90
2022-08-28T12:51:32.445Z,25.00
2022-08-28T12:54:02.871Z,25.00
2022-08-28T12:56:34.761Z,24.92
2022-08-28T12:59:27.461Z,25.00
2022-08-28T13:02:01.463Z,25.03
2022-08-28T13:04:40.056Z,25.01
2022-08-28T13:07:12.365Z,24.59
2022-08-28T13:09:50.309Z,24.54
2022-08-28T13:12:22.454Z,24.99
2022-08-28T13:15:02.602Z,24.94
2022-08-28T13:17:49.986Z,24.76
2022-08-28T13:20:35.545Z,23.99
2022-08-28T13:23:05.227Z,24.07
2022-08-28T13:25:36.365Z,23.98
2022-08-28T13:28:12.569Z,24.59
2022-08-28T13:30:39.575Z,24.71
2022-08-28T13:33:18.044Z,24.29
2022-08-28T13:35:45.392Z,24.46
2022-08-28T13:38:14.366Z,24.78
2022-08-28T13:43:41.736Z,24.62
2022-08-28T13:46:08.438Z,24.93
2022-08-28T13:48:35.200Z,24.41
2022-08-28T13:51:07.520Z,24.27
2022-08-28T13:53:40.428Z,24.25
2022-08-28T13:56:07.208Z,24.46
2022-08-28T13:58:34.402Z,24.33
2022-08-28T14:01:02.733Z,24.65
2022-08-28T14:03:29.566Z,24.40
2022-08-28T14:05:56.661Z,24.59
2022-08-28T14:08:23.262Z,24.68
2022-08-28T14:10:49.938Z,24.74
2022-08-28T14:13:16.643Z,24.66
2022-08-28T14:15:43.288Z,24.96
2022-08-28T14:18:10.028Z,25.22
2022-08-28T14:20:38.298Z,24.52
2022-08-28T14:23:05.614Z,24.66
2022-08-28T14:25:37.087Z,25.22
2022-08-28T14:28:06.401Z,25.24
2022-08-28T14:30:33.236Z,25.17
2022-08-28T14:32:59.950Z,24.99
2022-08-28T14:35:26.735Z,25.01
2022-08-28T14:37:53.702Z,25.01
2022-08-28T14:40:21.923Z,25.35
2022-08-28T14:42:51.064Z,25.38
2022-08-28T14:45:17.827Z,25.66
2022-08-28T14:47:44.886Z,25.61
2022-08-28T14:50:11.845Z,26.03
2022-08-28T14:52:38.756Z,26.23
2022-08-28T14:55:06.083Z,26.01
2022-08-28T14:57:33.069Z,26.16
2022-08-28T14:59:59.820Z,25.52
2022-08-28T15:02:26.794Z,25.99
2022-08-28T15:04:53.963Z,26.08
2022-08-28T15:07:20.611Z,25.79
2022-08-28T15:09:47.605Z,25.96
2022-08-28T15:12:14.493Z,25.88
2022-08-28T15:14:51.930Z,26.23
2022-08-28T15:17:23.741Z,26.20
2022-08-28T15:20:01.004Z,25.94
2022-08-28T15:22:27.722Z,25.92
2022-08-28T15:24:55.716Z,25.96
2022-08-28T15:27:22.423Z,25.63
2022-08-28T15:29:49.046Z,25.70
2022-08-28T15:32:15.649Z,25.88
2022-08-28T15:34:42.245Z,25.85
2022-08-28T15:37:08.911Z,26.37
2022-08-28T15:39:40.067Z,26.43
2022-08-28T15:42:07.941Z,26.37
2022-08-28T15:44:37.434Z,26.54
2022-08-28T15:47:04.524Z,26.54
2022-08-28T15:49:36.194Z,26.39
2022-08-28T15:52:10.954Z,26.34
2022-08-28T15:54:37.758Z,26.29
2022-08-28T15:57:04.725Z,26.07
2022-08-28T15:59:39.943Z,26.52
2022-08-28T16:02:16.480Z,26.24
2022-08-28T16:04:43.238Z,26.02
2022-08-28T16:07:09.855Z,26.20
2022-08-28T16:09:36.476Z,26.53
2022-08-28T16:12:03.526Z,26.25
2022-08-28T16:14:32.501Z,26.15
2022-08-28T16:16:59.216Z,25.75
2022-08-28T16:19:32.569Z,25.95
2022-08-28T16:21:59.523Z,25.90
2022-08-28T16:24:26.131Z,26.49
2022-08-28T16:26:52.752Z,26.43
2022-08-28T16:29:19.763Z,26.46
2022-08-28T16:31:48.997Z,26.61
2022-08-28T16:34:19.610Z,26.55
2022-08-28T16:36:47.250Z,26.26
2022-08-28T16:39:14.495Z,26.16
2022-08-28T16:41:41.309Z,25.68
2022-08-28T16:44:08.133Z,25.90
2022-08-28T16:46:34.863Z,26.20
2022-08-28T16:49:01.659Z,25.88
2022-08-28T16:51:28.535Z,26.18
2022-08-28T16:53:56.789Z,25.74
2022-08-28T16:56:24.088Z,25.98
2022-08-28T16:58:53.300Z,26.01
2022-08-28T17:01:22.062Z,25.85
2022-08-28T17:03:53.071Z,25.50
2022-08-28T17:06:23.208Z,25.58
2022-08-28T17:08:55.929Z,25.12
2022-08-28T17:11:26.507Z,25.15
2022-08-28T17:13:53.950Z,25.22
2022-08-28T17:16:21.974Z,25.22
2022-08-28T17:18:52.590Z,25.25
2022-08-28T17:21:21.131Z,25.13
2022-08-28T17:23:47.960Z,25.43
2022-08-28T17:26:14.838Z,25.11
2022-08-28T17:28:42.455Z,24.92
2022-08-28T17:31:13.440Z,25.16
2022-08-28T17:33:44.747Z,25.09
2022-08-28T17:36:21.478Z,25.18
2022-08-28T17:39:00.103Z,24.99
2022-08-28T17:41:26.943Z,25.30
2022-08-28T17:43:53.601Z,24.76
2022-08-28T17:46:20.339Z,24.83
2022-08-28T17:48:55.475Z,24.37
2022-08-28T17:51:43.070Z,24.47
2022-08-28T17:54:17.093Z,24.36
2022-08-28T17:56:47.443Z,24.71
2022-08-28T17:59:15.249Z,24.66
2022-08-28T18:01:43.413Z,24.62
2022-08-28T18:04:11.586Z,24.71
2022-08-28T18:06:39.073Z,23.93
2022-08-28T18:09:06.744Z,23.51
2022-08-28T18:11:33.466Z,23.70
2022-08-28T18:14:00.239Z,23.37
2022-08-28T18:16:31.470Z,23.03
2022-08-28T18:18:59.778Z,22.71
2022-08-28T18:21:27.262Z,22.52
2022-08-28T18:23:53.938Z,22.66
2022-08-28T18:26:20.793Z,22.94
2022-08-28T18:28:47.473Z,23.19
2022-08-28T18:31:14.558Z,22.58
2022-08-28T18:33:41.516Z,22.96
2022-08-28T18:36:13.377Z,22.45
2022-08-28T18:38:40.964Z,22.19
2022-08-28T18:41:09.402Z,22.16
2022-08-28T18:43:38.623Z,22.17
2022-08-28T18:46:07.820Z,21.89
2022-08-28T18:48:36.393Z,21.79
2022-08-28T18:51:09.616Z,21.63
2022-08-28T18:53:36.542Z,21.72
2022-08-28T18:56:04.505Z,21.64
2022-08-28T18:58:31.282Z,21.70
2022-08-28T19:00:59.934Z,21.58
2022-08-28T19:03:29.429Z,21.49
2022-08-28T19:05:56.072Z,21.70
2022-08-28T19:08:26.784Z,21.40
2022-08-28T19:10:54.483Z,21.37
2022-08-28T19:13:21.333Z,21.47
2022-08-28T19:15:50.640Z,21.38
2022-08-28T19:18:18.421Z,21.38
2022-08-28T19:20:45.788Z,21.46
2022-08-28T19:23:17.244Z,21.44
2022-08-28T19:25:44.737Z,21.55
2022-08-28T19:28:11.458Z,21.43
2022-08-28T19:30:38.229Z,21.54
2022-08-28T19:33:05.301Z,21.41
2022-08-28T19:35:32.669Z,21.44
2022-08-28T19:37:59.498Z,21.48
2022-08-28T19:40:26.204Z,21.40
2022-08-28T19:42:52.915Z,21.49
2022-08-28T19:45:20.332Z,21.50
2022-08-28T19:47:47.232Z,21.34
2022-08-28T19:50:15.751Z,21.15
2022-08-28T19:52:43.464Z,21.12
2022-08-28T19:55:21.779Z,21.13
2022-08-28T19:57:48.853Z,21.08
2022-08-28T20:00:19.025Z,21.19
2022-08-28T20:02:46.918Z,21.44
2022-08-28T20:05:16.478Z,21.21
2022-08-28T20:07:44.518Z,21.36
2022-08-28T20:10:13.067Z,21.60
2022-08-28T20:12:47.971Z,21.22
2022-08-28T20:15:17.662Z,21.30
2022-08-28T20:17:49.508Z,21.53
2022-08-28T20:20:19.016Z,21.17
2022-08-28T20:22:45.836Z,21.33
2022-08-28T20:25:12.658Z,21.23
2022-08-28T20:27:41.587Z,21.36
2022-08-28T20:30:10.754Z,21.19
2022-08-28T20:32:40.024Z,21.21
2022-08-28T20:35:10.953Z,21.88
2022-08-28T20:37:45.295Z,22.29
2022-08-28T20:40:18.740Z,22.58
2022-08-28T20:42:46.753Z,22.26
2022-08-28T20:45:15.941Z,22.09
2022-08-28T20:47:43.250Z,21.85
2022-08-28T20:50:10.933Z,22.01
2022-08-28T20:52:38.590Z,21.81
2022-08-28T20:55:07.784Z,21.85
2022-08-28T20:57:35.912Z,22.13
2022-08-28T21:00:05.988Z,21.49
2022-08-28T21:02:32.854Z,21.27
2022-08-28T21:04:59.650Z,21.69
2022-08-28T21:07:27.006Z,22.16
2022-08-28T21:10:05.869Z,22.25
2022-08-28T21:12:38.867Z,22.04
2022-08-28T21:15:12.444Z,22.04
2022-08-28T21:17:40.153Z,22.08
2022-08-28T21:20:11.642Z,22.06
2022-08-28T21:22:39.668Z,21.47
2022-08-28T21:25:09.891Z,21.77
2022-08-28T21:27:37.870Z,22.06
2022-08-28T21:30:08.541Z,21.15
2022-08-28T21:32:35.380Z,21.07
2022-08-28T21:35:04.270Z,21.95
2022-08-28T21:37:33.281Z,22.28
2022-08-28T21:40:05.661Z,22.42
2022-08-28T21:42:32.521Z,21.68
2022-08-28T21:45:00.637Z,21.46
2022-08-28T21:47:41.989Z,21.72
2022-08-28T21:50:09.271Z,21.48
2022-08-28T21:52:36.269Z,21.47
2022-08-28T21:55:08.812Z,21.03
2022-08-28T21:57:35.953Z,21.61
2022-08-28T22:00:05.720Z,21.98
2022-08-28T22:02:32.589Z,22.00
2022-08-28T22:04:59.363Z,20.96
2022-08-28T22:07:28.567Z,20.84
2022-08-28T22:09:55.724Z,20.98
2022-08-28T22:12:22.382Z,21.18
2022-08-28T22:14:49.194Z,20.30
2022-08-28T22:17:15.877Z,20.63
2022-08-28T22:19:42.746Z,20.14
2022-08-28T22:22:13.885Z,19.95
2022-08-28T22:24:40.758Z,19.71
2022-08-28T22:27:07.539Z,19.79
2022-08-28T22:29:34.240Z,19.91
2022-08-28T22:32:01.114Z,20.10
2022-08-28T22:34:27.806Z,19.70
2022-08-28T22:36:54.461Z,19.87
2022-08-28T22:39:24.146Z,20.15
2022-08-28T22:41:50.841Z,19.69
2022-08-28T22:44:17.609Z,19.55
2022-08-28T22:46:44.228Z,20.19
2022-08-28T22:49:10.848Z,19.87
2022-08-28T22:51:37.480Z,19.67
2022-08-28T22:54:04.421Z,19.45
2022-08-28T22:56:31.147Z,19.66
2022-08-28T22:58:57.922Z,19.64
2022-08-28T23:01:26.219Z,19.44
2022-08-28T23:03:53.083Z,19.10
2022-08-28T23:06:20.282Z,19.13
2022-08-28T23:08:47.737Z,19.09
2022-08-28T23:11:14.683Z,19.21
2022-08-28T23:13:41.440Z,18.96
2022-08-28T23:16:09.426Z,19.29
2022-08-28T23:19:04.305Z,19.15
2022-08-28T23:21:26.394Z,19.45
2022-08-28T23:23:53.293Z,19.34
2022-08-28T23:26:19.905Z,19.26
2022-08-28T23:28:47.881Z,19.11
2022-08-28T23:31:14.521Z,19.19
2022-08-28T23:33:41.776Z,19.12
2022-08-28T23:36:09.792Z,19.27
2022-08-28T23:38:42.860Z,19.36
2022-08-28T23:41:11.602Z,19.28
2022-08-28T23:43:40.102Z,19.55
2022-08-28T23:46:06.821Z,19.78
2022-08-28T23:48:35.372Z,19.59
2022-08-28T23:51:02.565Z,19.71
2022-08-28T23:53:29.752Z,19.49
2022-08-28T23:55:59.516Z,19.36
2022-08-28T23:58:28.468Z,19.31
